Time;durP1;ratioP1;P1;durP2;ratioP2;P2;SDS_P1;SDS_P2;PMS_P1;PMS_P2;Temp;Humidity;BMP_temperature;BMP_pressure;BME280_temperature;BME280_humidity;BME280_pressure;Samples;Min_cycle;Max_cycle;Signal;HPM_P1;HPM_P2
2022/03/10 05:00:26;;;;;;;21.10;12.63;;;0.50;99.90;;;;;;5952684;23;20376;-77
2022/03/10 05:02:53;;;;;;;24.87;12.40;;;0.50;99.90;;;;;;4975612;28;20944;-77
2022/03/10 05:05:20;;;;;;;28.40;13.93;;;0.40;99.90;;;;;;4975670;28;20461;-77
2022/03/10 05:07:47;;;;;;;25.77;12.50;;;0.40;99.90;;;;;;4975551;28;20539;-77
2022/03/10 05:10:15;;;;;;;29.47;14.70;;;0.40;99.90;;;;;;4975437;28;20452;-78
2022/03/10 05:12:50;;;;;;;27.50;13.60;;;0.40;99.90;;;;;;4956007;28;20553;-78
2022/03/10 05:15:20;;;;;;;24.27;14.07;;;0.40;99.90;;;;;;4994494;23;20595;-72
2022/03/10 05:17:49;;;;;;;27.40;13.87;;;0.30;99.90;;;;;;4975358;28;20819;-72
2022/03/10 05:20:16;;;;;;;24.43;13.40;;;0.40;99.90;;;;;;4975262;28;20471;-72
2022/03/10 05:22:51;;;;;;;27.40;14.20;;;0.30;99.90;;;;;;4975640;28;20441;-72
2022/03/10 05:25:19;;;;;;;28.27;14.43;;;0.40;99.90;;;;;;4976238;28;20558;-72
2022/03/10 05:27:47;;;;;;;24.20;14.03;;;0.40;99.90;;;;;;4975621;28;20547;-72
2022/03/10 05:30:15;;;;;;;19.90;13.00;;;0.40;99.90;;;;;;4975622;28;20437;-72
2022/03/10 05:32:42;;;;;;;22.57;12.57;;;0.30;99.90;;;;;;4975580;28;20496;-73
2022/03/10 05:35:14;;;;;;;18.67;11.63;;;0.40;99.90;;;;;;4975173;28;20503;-63
2022/03/10 05:37:41;;;;;;;18.63;11.53;;;0.40;99.90;;;;;;4974748;28;20975;-63
2022/03/10 05:40:09;;;;;;;23.10;12.70;;;0.30;99.90;;;;;;4975037;28;20515;-63
2022/03/10 05:42:38;;;;;;;23.23;11.07;;;0.30;99.90;;;;;;4975126;28;20543;-73
2022/03/10 05:45:05;;;;;;;22.10;11.63;;;0.30;99.90;;;;;;4975221;28;20481;-72
2022/03/10 05:47:32;;;;;;;19.90;11.77;;;0.20;99.90;;;;;;4974724;28;20547;-72
2022/03/10 05:49:59;;;;;;;22.63;11.83;;;0.20;99.90;;;;;;4974672;28;20460;-72
2022/03/10 05:52:27;;;;;;;20.73;12.50;;;0.20;99.90;;;;;;4974520;28;20462;-74
2022/03/10 05:54:54;;;;;;;22.80;12.65;;;0.20;99.90;;;;;;4974870;28;20499;-73
2022/03/10 05:57:21;;;;;;;23.77;11.70;;;0.20;99.90;;;;;;4974889;28;20252;-74
2022/03/10 05:59:48;;;;;;;21.23;12.23;;;0.20;99.90;;;;;;4975013;28;20548;-73
2022/03/10 06:02:16;;;;;;;25.70;13.57;;;0.30;99.90;;;;;;4974681;28;20552;-73
2022/03/10 06:04:43;;;;;;;20.43;12.00;;;0.20;99.90;;;;;;4974272;28;20997;-73
2022/03/10 06:07:10;;;;;;;17.77;11.80;;;0.20;99.90;;;;;;4974436;28;20476;-73
2022/03/10 06:09:38;;;;;;;25.10;11.73;;;0.10;99.90;;;;;;4974454;28;20462;-73
2022/03/10 06:12:08;;;;;;;22.87;11.90;;;0.10;99.90;;;;;;4974561;28;20453;-73
2022/03/10 06:14:35;;;;;;;21.23;12.60;;;0.10;99.90;;;;;;4974207;28;20484;-73
2022/03/10 06:17:02;;;;;;;19.95;12.68;;;0.10;99.90;;;;;;4974234;28;20555;-73
2022/03/10 06:19:29;;;;;;;20.17;11.80;;;0.10;99.90;;;;;;4974235;28;20669;-73
2022/03/10 06:21:56;;;;;;;22.33;12.20;;;0.10;99.90;;;;;;4974332;28;20456;-73
2022/03/10 06:24:23;;;;;;;17.97;11.93;;;0.10;99.90;;;;;;4975378;28;20567;-73
2022/03/10 06:26:51;;;;;;;21.30;12.47;;;0.20;99.90;;;;;;4974111;28;20456;-73
2022/03/10 06:29:18;;;;;;;22.90;13.37;;;0.20;99.90;;;;;;4974224;28;20539;-73
2022/03/10 06:31:45;;;;;;;21.40;12.93;;;0.20;99.90;;;;;;4973880;28;20461;-74
2022/03/10 06:34:11;;;;;;;22.53;12.90;;;0.30;99.90;;;;;;4974291;28;20460;-72
2022/03/10 06:36:38;;;;;;;22.63;13.63;;;0.30;99.90;;;;;;4973818;28;20503;-72
2022/03/10 06:39:06;;;;;;;20.13;12.40;;;0.20;99.90;;;;;;4974033;28;20452;-72
2022/03/10 06:41:33;;;;;;;26.63;13.47;;;0.30;99.90;;;;;;4974219;28;20448;-73
2022/03/10 06:44:01;;;;;;;23.33;13.50;;;0.30;99.90;;;;;;4974061;28;20475;-73
2022/03/10 06:46:28;;;;;;;21.37;13.00;;;0.30;99.90;;;;;;4973104;28;20580;-73
2022/03/10 06:48:54;;;;;;;24.40;13.80;;;0.30;99.90;;;;;;4973717;28;20459;-73
2022/03/10 06:51:21;;;;;;;25.37;14.23;;;0.40;99.90;;;;;;4973048;28;20944;-73
2022/03/10 06:53:48;;;;;;;26.33;14.83;;;0.30;99.90;;;;;;4973169;28;20483;-73
2022/03/10 06:56:15;;;;;;;24.97;14.00;;;0.30;99.90;;;;;;4973186;28;20863;-73
2022/03/10 06:58:42;;;;;;;27.23;14.90;;;0.40;99.90;;;;;;4973313;28;20452;-73
2022/03/10 07:01:11;;;;;;;23.80;13.73;;;0.40;99.90;;;;;;4973803;28;20555;-73
2022/03/10 07:03:37;;;;;;;26.03;13.67;;;0.40;99.90;;;;;;4973568;28;20548;-73
2022/03/10 07:06:04;;;;;;;23.57;14.23;;;0.40;99.90;;;;;;4973765;28;20561;-73
2022/03/10 07:08:31;;;;;;;25.10;14.03;;;0.50;99.90;;;;;;4973338;28;20457;-73
2022/03/10 07:10:58;;;;;;;22.93;13.40;;;0.60;99.90;;;;;;4973462;28;20588;-73
2022/03/10 07:13:25;;;;;;;28.40;14.80;;;0.60;99.90;;;;;;4973418;28;20456;-74
2022/03/10 07:15:52;;;;;;;23.30;13.27;;;0.60;99.90;;;;;;4973201;28;20507;-74
2022/03/10 07:18:20;;;;;;;28.47;14.70;;;0.60;99.90;;;;;;4973239;28;20455;-73
2022/03/10 07:20:48;;;;;;;28.00;14.20;;;0.70;99.90;;;;;;4973507;28;20463;-74
2022/03/10 07:23:14;;;;;;;24.23;14.27;;;0.80;99.90;;;;;;4973453;28;20461;-73
2022/03/10 07:25:43;;;;;;;23.90;15.00;;;0.80;99.90;;;;;;4972963;28;20507;-73
2022/03/10 07:28:10;;;;;;;34.60;14.30;;;0.90;99.90;;;;;;4973185;28;20457;-73
2022/03/10 07:30:37;;;;;;;27.83;15.47;;;1.00;99.90;;;;;;4973362;28;20999;-73
2022/03/10 07:33:04;;;;;;;29.67;12.87;;;1.10;99.90;;;;;;4973543;28;20455;-73
2022/03/10 07:35:32;;;;;;;24.50;14.07;;;1.10;99.90;;;;;;4973113;28;20491;-73
2022/03/10 07:37:59;;;;;;;23.83;13.97;;;1.20;99.90;;;;;;4971564;28;20457;-73
2022/03/10 07:40:26;;;;;;;26.50;14.20;;;1.30;99.90;;;;;;4972650;28;20461;-73
2022/03/10 07:42:53;;;;;;;26.50;13.77;;;1.40;99.90;;;;;;4973267;28;20523;-73
2022/03/10 07:45:20;;;;;;;26.17;13.90;;;1.50;99.90;;;;;;4973105;28;20555;-73
2022/03/10 07:47:47;;;;;;;27.80;14.27;;;1.60;99.90;;;;;;4972745;28;20457;-74
2022/03/10 07:50:14;;;;;;;23.77;14.70;;;1.70;99.90;;;;;;4973203;28;20548;-73
2022/03/10 07:52:42;;;;;;;23.10;14.37;;;1.90;99.90;;;;;;4972720;28;20941;-73
2022/03/10 07:55:13;;;;;;;22.03;14.23;;;2.10;99.90;;;;;;4972448;28;21026;-73
2022/03/10 07:57:40;;;;;;;25.93;15.70;;;2.20;99.90;;;;;;4972640;28;20904;-74
2022/03/10 08:00:08;;;;;;;24.43;14.03;;;2.30;99.90;;;;;;4973049;28;20547;-74
2022/03/10 08:02:35;;;;;;;23.10;11.20;;;2.50;99.90;;;;;;4973029;28;20476;-74
2022/03/10 08:05:02;;;;;;;21.43;12.60;;;2.70;99.90;;;;;;4976470;28;20977;-74
2022/03/10 08:07:32;;;;;;;15.83;9.10;;;2.90;99.90;;;;;;4976620;28;20449;-74
2022/03/10 08:10:01;;;;;;;13.10;9.20;;;3.20;99.90;;;;;;4976987;28;20463;-73
2022/03/10 08:12:29;;;;;;;14.67;9.37;;;3.50;99.90;;;;;;4976427;28;20457;-74
2022/03/10 08:14:56;;;;;;;14.20;9.17;;;3.70;99.90;;;;;;4976451;28;20488;-73
2022/03/10 08:17:23;;;;;;;21.47;8.87;;;3.90;99.90;;;;;;4976498;28;20496;-73
2022/03/10 08:19:50;;;;;;;13.47;8.70;;;4.10;99.90;;;;;;4976464;28;20437;-73
2022/03/10 08:22:17;;;;;;;15.27;8.93;;;4.30;99.90;;;;;;4976295;28;20466;-74
2022/03/10 08:24:45;;;;;;;13.33;8.93;;;4.60;99.90;;;;;;4976409;28;20565;-74
2022/03/10 08:27:14;;;;;;;14.87;8.77;;;4.80;99.90;;;;;;4976080;28;20456;-74
2022/03/10 08:29:41;;;;;;;15.70;9.03;;;5.00;99.90;;;;;;4976455;28;20448;-74
2022/03/10 08:32:09;;;;;;;18.60;8.97;;;5.20;99.90;;;;;;4976159;28;20830;-74
2022/03/10 08:34:36;;;;;;;15.37;8.93;;;5.40;99.90;;;;;;4976237;28;20973;-74
2022/03/10 08:37:03;;;;;;;15.57;10.13;;;5.60;99.90;;;;;;4975953;28;20492;-74
2022/03/10 08:39:30;;;;;;;16.03;10.40;;;5.80;99.90;;;;;;4976230;28;20456;-75
2022/03/10 08:41:57;;;;;;;18.20;12.10;;;6.10;99.90;;;;;;4976261;28;20452;-75
2022/03/10 08:44:25;;;;;;;14.90;11.10;;;6.50;99.90;;;;;;4976193;28;20547;-73
2022/03/10 08:46:52;;;;;;;20.73;12.13;;;6.80;99.90;;;;;;4975661;28;20532;-74
2022/03/10 08:49:19;;;;;;;21.03;12.00;;;7.10;99.90;;;;;;4975649;28;20547;-74
2022/03/10 08:51:47;;;;;;;17.37;10.77;;;7.50;99.90;;;;;;4976129;28;20457;-74
2022/03/10 08:54:14;;;;;;;18.80;11.10;;;7.60;99.90;;;;;;4975827;28;20512;-75
2022/03/10 08:56:41;;;;;;;14.20;9.77;;;7.90;99.90;;;;;;4975851;28;20582;-75
2022/03/10 08:59:08;;;;;;;12.13;8.57;;;8.20;99.90;;;;;;4976023;28;20886;-75
2022/03/10 09:01:37;;;;;;;14.87;9.53;;;8.40;99.00;;;;;;4975828;28;20453;-75
2022/03/10 09:04:04;;;;;;;15.70;9.10;;;8.60;99.40;;;;;;4975693;28;20484;-74
2022/03/10 09:06:32;;;;;;;14.17;9.50;;;9.00;99.90;;;;;;4975514;28;20454;-74
2022/03/10 09:08:59;;;;;;;12.60;8.40;;;9.60;98.60;;;;;;4975698;28;20518;-74
2022/03/10 09:11:26;;;;;;;15.30;8.93;;;10.00;96.20;;;;;;4975720;28;20479;-74
2022/03/10 09:13:53;;;;;;;19.40;9.70;;;10.50;96.20;;;;;;4975315;28;20520;-75
2022/03/10 09:16:22;;;;;;;14.07;8.83;;;10.70;93.80;;;;;;4974201;28;20499;-73
2022/03/10 09:18:50;;;;;;;11.80;8.60;;;10.80;94.10;;;;;;4975606;28;20555;-73
2022/03/10 09:21:18;;;;;;;14.93;9.27;;;10.90;92.40;;;;;;4975289;28;20488;-73
2022/03/10 09:23:45;;;;;;;12.90;9.50;;;11.00;93.20;;;;;;4975380;28;20456;-75
2022/03/10 09:26:11;;;;;;;11.77;8.40;;;11.50;93.50;;;;;;4975345;28;20487;-73
2022/03/10 09:28:39;;;;;;;14.03;8.63;;;11.60;92.30;;;;;;4975420;28;20478;-72
2022/03/10 09:31:06;;;;;;;15.60;8.43;;;12.10;91.70;;;;;;4975348;28;20849;-73
2022/03/10 09:33:33;;;;;;;12.57;8.30;;;12.40;91.20;;;;;;4975167;28;20463;-73
2022/03/10 09:36:01;;;;;;;11.13;7.63;;;12.30;88.30;;;;;;4975157;28;20903;-75
2022/03/10 09:38:28;;;;;;;13.80;8.40;;;12.50;90.40;;;;;;4975118;28;20967;-74
2022/03/10 09:40:54;;;;;;;11.00;7.87;;;12.60;90.10;;;;;;4975026;28;21027;-75
2022/03/10 09:43:23;;;;;;;10.30;7.43;;;12.80;86.30;;;;;;4975093;28;20540;-75
2022/03/10 09:45:51;;;;;;;9.10;6.33;;;13.30;90.80;;;;;;4973957;28;20511;-75
2022/03/10 09:48:18;;;;;;;10.20;6.60;;;13.70;86.10;;;;;;4975015;28;20445;-75
2022/03/10 09:50:47;;;;;;;6.83;5.70;;;13.90;81.80;;;;;;4975032;28;20456;-73
2022/03/10 09:53:18;;;;;;;11.03;5.50;;;14.20;82.40;;;;;;4974959;28;20535;-73
2022/03/10 09:55:45;;;;;;;7.67;5.07;;;15.00;79.10;;;;;;4974477;28;20485;-73
2022/03/10 09:58:12;;;;;;;10.60;5.67;;;15.50;75.60;;;;;;4975060;28;20488;-73
2022/03/10 10:00:39;;;;;;;10.33;5.27;;;15.50;74.30;;;;;;4975029;28;20453;-73
2022/03/10 10:03:06;;;;;;;8.83;5.10;;;15.90;76.80;;;;;;4974779;28;20452;-73
2022/03/10 10:05:37;;;;;;;8.30;5.53;;;16.40;72.80;;;;;;4974648;28;20477;-73
2022/03/10 10:08:09;;;;;;;10.90;5.70;;;16.60;71.70;;;;;;4974889;28;20640;-73
2022/03/10 10:10:40;;;;;;;6.47;5.40;;;16.40;72.70;;;;;;4974712;28;20440;-74
2022/03/10 10:13:07;;;;;;;7.37;5.47;;;16.40;71.80;;;;;;4974746;28;20528;-76
2022/03/10 10:15:35;;;;;;;6.43;5.00;;;16.60;71.40;;;;;;4974143;28;20520;-74
2022/03/10 10:18:02;;;;;;;5.43;4.20;;;16.80;70.40;;;;;;4974017;28;20932;-74
2022/03/10 10:20:33;;;;;;;6.83;4.80;;;17.10;70.80;;;;;;4974668;28;20464;-74
2022/03/10 10:23:17;;;;;;;6.77;4.90;;;17.50;69.40;;;;;;4974046;28;20523;-74
2022/03/10 10:25:56;;;;;;;10.20;4.53;;;17.50;66.70;;;;;;4974020;28;20515;-74
2022/03/10 10:28:28;;;;;;;6.87;4.67;;;17.60;65.30;;;;;;4973099;28;21028;-74
2022/03/10 10:30:59;;;;;;;5.97;4.50;;;17.80;66.70;;;;;;4974380;28;20448;-75
2022/03/10 10:33:27;;;;;;;5.80;4.63;;;18.10;64.90;;;;;;4973802;28;20452;-74
2022/03/10 10:36:13;;;;;;;6.30;4.93;;;18.50;64.60;;;;;;4974031;28;20459;-74
2022/03/10 10:38:41;;;;;;;8.50;4.57;;;19.10;61.60;;;;;;4974370;28;20436;-74
2022/03/10 10:41:24;;;;;;;6.47;3.87;;;19.20;62.00;;;;;;4973961;28;20470;-74
2022/03/10 10:43:53;;;;;;;5.43;4.50;;;19.50;59.60;;;;;;4974200;28;20543;-74
2022/03/10 10:46:35;;;;;;;7.87;5.00;;;19.40;60.00;;;;;;4973834;28;20971;-74
2022/03/10 10:49:04;;;;;;;6.50;4.73;;;19.60;58.40;;;;;;4973958;28;20479;-74
2022/03/10 10:51:34;;;;;;;6.83;5.17;;;19.70;59.50;;;;;;4973878;28;20555;-74
2022/03/10 10:54:03;;;;;;;9.30;4.97;;;19.90;58.70;;;;;;4973704;28;21059;-74
2022/03/10 10:56:33;;;;;;;7.47;5.00;;;20.10;59.00;;;;;;4973351;28;20936;-74
2022/03/10 10:59:01;;;;;;;7.53;4.60;;;20.20;57.30;;;;;;4973676;28;20472;-74
2022/03/10 11:01:35;;;;;;;6.03;5.07;;;20.20;58.00;;;;;;4973532;28;21202;-74
2022/03/10 11:04:04;;;;;;;6.63;4.77;;;20.30;56.60;;;;;;4973846;28;20512;-74
2022/03/10 11:06:32;;;;;;;5.37;4.50;;;20.20;57.40;;;;;;4973483;28;20441;-74
2022/03/10 11:08:59;;;;;;;6.80;4.90;;;20.30;57.50;;;;;;4973544;28;20449;-74
2022/03/10 11:11:25;;;;;;;4.87;4.10;;;20.30;57.20;;;;;;4973593;28;20520;-66
2022/03/10 11:13:54;;;;;;;6.87;4.67;;;20.20;56.40;;;;;;4973457;28;20481;-66
2022/03/10 11:16:21;;;;;;;6.07;4.37;;;20.10;57.70;;;;;;4996059;23;20509;-69
2022/03/10 11:18:50;;;;;;;5.70;4.20;;;20.10;57.00;;;;;;4973681;28;20475;-68
2022/03/10 11:21:38;;;;;;;6.33;4.43;;;19.90;56.00;;;;;;4973054;28;20452;-70
2022/03/10 11:24:29;;;;;;;4.73;3.87;;;19.70;55.90;;;;;;4973635;28;20511;-68
2022/03/10 11:27:04;;;;;;;5.57;4.47;;;19.70;54.80;;;;;;4944057;28;20500;-69
2022/03/10 11:29:34;;;;;;;5.23;4.30;;;19.60;55.60;;;;;;4953428;28;20440;-76
2022/03/10 11:32:01;;;;;;;5.60;3.93;;;20.20;55.60;;;;;;4954471;28;20530;-77
2022/03/10 11:34:48;;;;;;;6.07;4.27;;;20.90;55.30;;;;;;4954285;28;20461;-77
2022/03/10 11:37:35;;;;;;;5.20;4.10;;;21.30;54.40;;;;;;4953967;28;20504;-77
2022/03/10 11:40:04;;;;;;;6.80;3.83;;;21.30;54.30;;;;;;4954039;28;20469;-77
2022/03/10 11:42:33;;;;;;;5.80;4.57;;;21.40;53.70;;;;;;4953826;28;21012;-77
2022/03/10 11:45:16;;;;;;;6.90;4.33;;;21.30;53.30;;;;;;4954090;28;20560;-76
2022/03/10 11:47:44;;;;;;;5.87;4.97;;;21.70;52.90;;;;;;4954155;28;20804;-77
2022/03/10 11:50:34;;;;;;;7.30;4.93;;;21.70;53.50;;;;;;4954135;28;20464;-76
2022/03/10 11:53:03;;;;;;;7.30;5.27;;;21.90;53.40;;;;;;4953948;28;20449;-77
2022/03/10 11:55:42;;;;;;;7.27;4.97;;;22.10;53.70;;;;;;4953945;29;20492;-76
2022/03/10 11:58:11;;;;;;;6.97;5.30;;;22.40;52.60;;;;;;4953922;28;20513;-75
2022/03/10 12:00:52;;;;;;;6.90;5.23;;;22.40;52.50;;;;;;4954028;28;20453;-76
2022/03/10 12:03:21;;;;;;;5.87;4.90;;;22.70;52.30;;;;;;4953627;28;20904;-76
2022/03/10 12:05:53;;;;;;;6.33;4.50;;;22.80;50.90;;;;;;4953782;28;20477;-76
2022/03/10 12:08:20;;;;;;;12.23;5.70;;;22.80;51.90;;;;;;4953651;28;20454;-76
2022/03/10 12:10:48;;;;;;;7.27;4.93;;;23.00;52.20;;;;;;4953396;28;20454;-76
2022/03/10 12:13:22;;;;;;;9.50;5.90;;;22.90;51.80;;;;;;4953283;28;20453;-75
2022/03/10 12:15:53;;;;;;;8.20;5.07;;;22.80;50.60;;;;;;4953319;28;20524;-75
2022/03/10 12:18:24;;;;;;;5.43;4.77;;;22.80;51.90;;;;;;4953324;28;20494;-75
2022/03/10 12:20:53;;;;;;;5.83;4.30;;;22.50;50.70;;;;;;4953709;28;20446;-75
2022/03/10 12:23:23;;;;;;;6.00;4.30;;;22.60;49.70;;;;;;4953417;28;20833;-76
2022/03/10 12:25:53;;;;;;;5.07;4.10;;;22.30;48.90;;;;;;4953184;28;20986;-76
2022/03/10 12:28:34;;;;;;;5.60;4.20;;;22.20;49.00;;;;;;4943899;28;20464;-77
2022/03/10 12:31:14;;;;;;;5.13;3.90;;;22.50;49.80;;;;;;4953949;28;20870;-76
2022/03/10 12:33:50;;;;;;;5.83;4.33;;;22.50;49.30;;;;;;4953808;28;20803;-76
2022/03/10 12:36:32;;;;;;;6.00;4.83;;;22.80;49.10;;;;;;4953644;28;20504;-76
2022/03/10 12:39:00;;;;;;;5.17;4.40;;;22.90;49.00;;;;;;4953407;28;20444;-76
2022/03/10 12:41:36;;;;;;;4.87;4.20;;;23.20;48.00;;;;;;4953100;28;20517;-76
2022/03/10 12:44:07;;;;;;;5.43;4.77;;;23.10;47.10;;;;;;4953573;28;20457;-77
2022/03/10 12:46:42;;;;;;;6.63;4.17;;;23.10;48.10;;;;;;4953181;28;20497;-77
2022/03/10 12:49:19;;;;;;;8.40;4.97;;;23.20;47.10;;;;;;4953079;28;20529;-75
2022/03/10 12:51:47;;;;;;;6.30;4.83;;;23.40;47.50;;;;;;4937159;29;20466;-75
2022/03/10 12:54:14;;;;;;;6.47;5.30;;;23.50;47.00;;;;;;4937540;29;20458;-74
2022/03/10 12:56:46;;;;;;;6.57;4.50;;;23.70;46.80;;;;;;4937440;29;20486;-75
2022/03/10 12:59:15;;;;;;;6.17;4.97;;;23.70;45.60;;;;;;4937492;29;20549;-75
2022/03/10 13:01:44;;;;;;;6.63;4.77;;;23.60;46.70;;;;;;4937476;29;20514;-75
2022/03/10 13:04:14;;;;;;;5.00;4.50;;;23.50;47.40;;;;;;4937363;29;20981;-75
2022/03/10 13:06:41;;;;;;;6.77;4.57;;;23.60;47.10;;;;;;4937538;29;20450;-75
2022/03/10 13:09:08;;;;;;;6.23;4.27;;;23.60;46.30;;;;;;4937720;29;20537;-75
2022/03/10 13:11:38;;;;;;;7.47;5.07;;;23.70;45.60;;;;;;4936591;29;20951;-76
2022/03/10 13:14:07;;;;;;;5.73;4.53;;;23.70;45.90;;;;;;4936657;29;20533;-75
2022/03/10 13:16:35;;;;;;;6.30;4.73;;;23.50;45.70;;;;;;4936173;29;20557;-75
2022/03/10 13:19:04;;;;;;;6.40;5.43;;;23.40;44.40;;;;;;4936299;29;20844;-75
2022/03/10 13:21:31;;;;;;;6.50;4.17;;;23.50;44.60;;;;;;4936238;29;20469;-76
2022/03/10 13:23:58;;;;;;;11.10;5.10;;;23.60;45.30;;;;;;4951439;29;20457;-78
2022/03/10 13:26:25;;;;;;;5.73;4.63;;;23.50;44.90;;;;;;4955214;28;20985;-76
2022/03/10 13:28:53;;;;;;;5.20;4.53;;;23.30;44.20;;;;;;4955311;28;20450;-77
2022/03/10 13:31:26;;;;;;;5.83;5.23;;;23.40;45.50;;;;;;4955271;28;21065;-77
2022/03/10 13:33:54;;;;;;;7.80;4.27;;;23.40;45.30;;;;;;4955183;28;20442;-77
2022/03/10 13:36:22;;;;;;;5.10;4.33;;;23.30;45.10;;;;;;4955136;28;20589;-77
2022/03/10 13:38:49;;;;;;;6.57;5.40;;;23.40;44.80;;;;;;4955041;28;20599;-76
2022/03/10 13:41:16;;;;;;;5.53;4.77;;;23.30;44.40;;;;;;4955342;28;20460;-76
2022/03/10 13:43:43;;;;;;;6.10;5.10;;;23.20;43.80;;;;;;4955228;28;20548;-76
2022/03/10 13:46:12;;;;;;;6.80;4.73;;;23.00;43.30;;;;;;4954773;28;20481;-76
2022/03/10 13:48:46;;;;;;;5.83;5.00;;;22.90;43.20;;;;;;4955107;28;20561;-76
2022/03/10 13:51:13;;;;;;;8.43;5.43;;;22.70;44.40;;;;;;4955564;28;20438;-77
2022/03/10 13:53:57;;;;;;;8.23;6.60;;;22.60;44.00;;;;;;4955565;28;20544;-76
2022/03/10 13:56:32;;;;;;;8.70;5.73;;;22.40;45.30;;;;;;4955455;28;20473;-77
2022/03/10 13:58:59;;;;;;;6.90;5.27;;;22.30;45.30;;;;;;4955603;28;20544;-76
2022/03/10 14:01:27;;;;;;;7.33;5.43;;;22.20;44.00;;;;;;4955742;28;20826;-76
2022/03/10 14:03:55;;;;;;;7.93;5.23;;;22.30;45.10;;;;;;4955720;28;20465;-75
2022/03/10 14:06:22;;;;;;;7.40;5.50;;;22.30;44.70;;;;;;4954348;28;20565;-76
2022/03/10 14:08:53;;;;;;;7.77;5.73;;;22.20;43.80;;;;;;4955437;28;20877;-76
2022/03/10 14:11:22;;;;;;;6.10;5.20;;;22.20;44.30;;;;;;4955700;28;20634;-76
2022/03/10 14:13:49;;;;;;;7.00;5.63;;;22.10;44.60;;;;;;4955311;28;20468;-75
2022/03/10 14:16:19;;;;;;;6.60;5.77;;;22.10;45.50;;;;;;4954900;28;20485;-75
2022/03/10 14:18:47;;;;;;;8.77;5.30;;;22.00;44.70;;;;;;4955590;28;20500;-76
2022/03/10 14:21:15;;;;;;;5.63;4.90;;;21.90;43.10;;;;;;4955259;28;20946;-76
2022/03/10 14:23:42;;;;;;;5.80;4.30;;;21.40;42.20;;;;;;4941109;28;20549;-76
2022/03/10 14:26:15;;;;;;;7.73;4.73;;;21.40;43.60;;;;;;4935674;29;20478;-75
2022/03/10 14:28:43;;;;;;;6.40;4.73;;;21.50;44.70;;;;;;4935796;29;21076;-75
2022/03/10 14:31:13;;;;;;;6.50;4.53;;;21.70;42.40;;;;;;4935897;29;20833;-75
2022/03/10 14:33:40;;;;;;;6.07;4.57;;;21.80;42.50;;;;;;4936062;29;20454;-75
2022/03/10 14:36:12;;;;;;;7.93;4.57;;;21.90;42.20;;;;;;4935633;29;20986;-76
2022/03/10 14:38:41;;;;;;;5.27;4.30;;;21.90;42.00;;;;;;4935762;29;20478;-76
2022/03/10 14:41:09;;;;;;;6.17;4.33;;;21.90;43.00;;;;;;4935912;29;20463;-75
2022/03/10 14:43:38;;;;;;;7.30;5.30;;;21.90;42.60;;;;;;4935484;29;20456;-75
2022/03/10 14:46:05;;;;;;;7.50;5.20;;;21.90;42.60;;;;;;4935360;29;20853;-76
2022/03/10 14:48:32;;;;;;;6.10;4.73;;;21.90;43.20;;;;;;4935238;29;20513;-75
2022/03/10 14:50:59;;;;;;;6.00;5.07;;;21.80;42.60;;;;;;4935423;29;20465;-76
2022/03/10 14:53:26;;;;;;;5.57;4.50;;;21.70;42.80;;;;;;4945826;29;20457;-75
2022/03/10 14:55:53;;;;;;;7.37;5.30;;;21.60;42.50;;;;;;4954394;28;20869;-75
2022/03/10 14:58:20;;;;;;;6.13;4.40;;;21.60;42.30;;;;;;4942882;28;20494;-75
2022/03/10 15:00:48;;;;;;;6.80;5.40;;;21.60;42.70;;;;;;4935658;29;20461;-75
2022/03/10 15:03:15;;;;;;;5.60;4.87;;;21.70;43.40;;;;;;4935258;29;20985;-75
2022/03/10 15:05:42;;;;;;;7.37;5.10;;;21.70;43.30;;;;;;4935621;29;20478;-75
2022/03/10 15:08:09;;;;;;;5.60;4.67;;;21.70;43.30;;;;;;4935264;29;20537;-75
2022/03/10 15:10:36;;;;;;;6.97;5.23;;;21.70;43.30;;;;;;4935417;29;20643;-75
2022/03/10 15:13:03;;;;;;;6.93;4.67;;;21.80;43.10;;;;;;4934884;29;20478;-76
2022/03/10 15:15:32;;;;;;;7.10;4.80;;;21.90;42.20;;;;;;4935013;29;20486;-76
2022/03/10 15:18:01;;;;;;;8.40;5.00;;;22.00;42.70;;;;;;4934294;29;20507;-75
2022/03/10 15:20:29;;;;;;;5.30;4.57;;;22.40;42.60;;;;;;4935026;29;20683;-76
2022/03/10 15:22:57;;;;;;;5.97;4.83;;;22.50;43.40;;;;;;4935170;29;20476;-76
2022/03/10 15:25:25;;;;;;;5.53;4.47;;;22.60;43.20;;;;;;4934830;29;20510;-76
2022/03/10 15:27:52;;;;;;;5.63;4.33;;;22.70;42.70;;;;;;4934628;29;20455;-76
2022/03/10 15:30:19;;;;;;;4.50;3.90;;;22.70;41.10;;;;;;4935063;29;20550;-76
2022/03/10 15:32:47;;;;;;;5.10;4.03;;;22.50;41.00;;;;;;4934990;29;20462;-69
2022/03/10 15:35:15;;;;;;;4.70;3.87;;;22.60;40.60;;;;;;4935297;29;20574;-70
2022/03/10 15:37:43;;;;;;;6.00;4.27;;;22.70;42.00;;;;;;4934477;29;20541;-69
2022/03/10 15:40:11;;;;;;;6.10;4.63;;;22.90;42.10;;;;;;4935164;29;20454;-70
2022/03/10 15:42:38;;;;;;;7.60;4.00;;;22.90;40.60;;;;;;4935219;29;20451;-70
2022/03/10 15:45:05;;;;;;;6.60;4.00;;;23.00;40.90;;;;;;4934743;29;20493;-70
2022/03/10 15:47:33;;;;;;;4.50;4.10;;;23.10;40.30;;;;;;4934315;29;20461;-69
2022/03/10 15:50:03;;;;;;;5.80;4.53;;;23.00;40.30;;;;;;4934416;29;20550;-70
2022/03/10 15:52:32;;;;;;;5.33;3.83;;;22.90;39.50;;;;;;4933636;29;20462;-70
2022/03/10 15:54:59;;;;;;;7.70;4.27;;;22.90;40.50;;;;;;4934262;29;20510;-70
2022/03/10 15:57:29;;;;;;;6.00;4.47;;;22.90;40.00;;;;;;4937163;29;20481;-69
2022/03/10 15:59:56;;;;;;;5.40;4.00;;;23.00;39.80;;;;;;4950177;29;20499;-70
2022/03/10 16:02:23;;;;;;;6.47;4.67;;;22.80;39.10;;;;;;4945419;28;20485;-70
2022/03/10 16:04:50;;;;;;;6.20;4.77;;;22.90;39.80;;;;;;4953250;28;20501;-72
2022/03/10 16:07:19;;;;;;;6.80;5.23;;;22.90;40.10;;;;;;4952626;28;20619;-76
2022/03/10 16:09:47;;;;;;;6.00;4.90;;;22.80;39.60;;;;;;4952643;28;20472;-76
2022/03/10 16:12:14;;;;;;;7.13;5.00;;;22.90;40.40;;;;;;4952609;28;20460;-76
2022/03/10 16:14:41;;;;;;;6.53;4.40;;;23.00;40.60;;;;;;4952390;28;20576;-75
2022/03/10 16:17:10;;;;;;;6.80;6.07;;;23.00;40.60;;;;;;4952027;28;20545;-76
2022/03/10 16:19:37;;;;;;;9.47;7.27;;;22.90;40.50;;;;;;4952560;28;20500;-76
2022/03/10 16:22:05;;;;;;;8.37;6.60;;;22.90;41.20;;;;;;4952393;28;20461;-75
2022/03/10 16:24:32;;;;;;;6.63;5.00;;;22.80;40.50;;;;;;4953599;28;20492;-75
2022/03/10 16:27:01;;;;;;;6.30;5.20;;;22.50;39.80;;;;;;4955724;28;20905;-76
2022/03/10 16:29:30;;;;;;;8.47;5.17;;;22.30;40.20;;;;;;4955828;28;20516;-75
2022/03/10 16:31:58;;;;;;;8.97;5.97;;;22.00;40.70;;;;;;4956069;28;20508;-75
2022/03/10 16:34:25;;;;;;;7.47;5.87;;;21.40;39.90;;;;;;4956344;28;20827;-75
2022/03/10 16:36:52;;;;;;;8.30;6.00;;;20.80;40.20;;;;;;4955773;28;20453;-75
2022/03/10 16:39:19;;;;;;;7.80;5.40;;;20.40;40.60;;;;;;4956066;28;20580;-75
2022/03/10 16:41:49;;;;;;;9.30;5.47;;;19.80;40.80;;;;;;4955865;28;20512;-76
2022/03/10 16:44:17;;;;;;;7.17;6.17;;;19.30;40.80;;;;;;4955599;28;20492;-75
2022/03/10 16:46:47;;;;;;;7.83;5.67;;;18.90;41.50;;;;;;4955820;28;20453;-75
2022/03/10 16:49:15;;;;;;;8.00;6.23;;;18.60;42.30;;;;;;4955932;28;20834;-75
2022/03/10 16:51:43;;;;;;;6.43;5.40;;;18.30;41.80;;;;;;4955947;28;20467;-76
2022/03/10 16:54:10;;;;;;;8.40;6.27;;;17.90;42.10;;;;;;4955714;28;20449;-76
2022/03/10 16:56:37;;;;;;;10.20;7.40;;;17.70;42.20;;;;;;4955352;28;20463;-75
2022/03/10 16:59:05;;;;;;;9.27;7.50;;;17.50;42.50;;;;;;4955486;28;20503;-75
2022/03/10 17:01:37;;;;;;;10.37;7.27;;;17.20;42.40;;;;;;4955859;28;20461;-76
2022/03/10 17:04:05;;;;;;;9.63;6.60;;;17.10;43.20;;;;;;4955685;28;20516;-75
2022/03/10 17:06:34;;;;;;;9.40;6.80;;;17.00;42.90;;;;;;4956081;28;20484;-75
2022/03/10 17:09:01;;;;;;;9.63;7.60;;;16.80;43.00;;;;;;4956456;28;20500;-76
2022/03/10 17:11:27;;;;;;;8.67;6.93;;;16.60;43.20;;;;;;4956244;28;20544;-76
2022/03/10 17:13:54;;;;;;;11.60;8.30;;;16.50;44.00;;;;;;4956461;28;20454;-75
2022/03/10 17:16:21;;;;;;;11.50;7.00;;;16.30;43.60;;;;;;4956239;28;20572;-78
2022/03/10 17:18:50;;;;;;;12.33;7.63;;;16.10;43.20;;;;;;4956242;28;20501;-75
2022/03/10 17:21:17;;;;;;;9.30;7.40;;;16.00;43.10;;;;;;4955989;28;20890;-76
2022/03/10 17:23:44;;;;;;;13.87;7.57;;;15.90;43.50;;;;;;4957033;28;20442;-76
2022/03/10 17:26:12;;;;;;;11.17;7.47;;;15.70;43.60;;;;;;4956609;28;20552;-76
2022/03/10 17:28:38;;;;;;;10.90;7.67;;;15.50;43.80;;;;;;4956104;28;20517;-76
2022/03/10 17:31:05;;;;;;;9.60;7.40;;;15.30;43.90;;;;;;4955968;28;20489;-76
2022/03/10 17:33:33;;;;;;;12.67;8.20;;;15.20;44.70;;;;;;4956166;28;20461;-76
2022/03/10 17:36:01;;;;;;;10.90;8.20;;;15.10;44.40;;;;;;4955097;28;20472;-76
2022/03/10 17:38:28;;;;;;;14.00;9.10;;;15.00;44.90;;;;;;4955485;28;20835;-75
2022/03/10 17:40:56;;;;;;;13.33;9.07;;;14.90;44.90;;;;;;4956200;28;20449;-75
2022/03/10 17:43:23;;;;;;;18.17;11.67;;;14.70;45.00;;;;;;4955881;28;20877;-76
2022/03/10 17:45:50;;;;;;;17.20;11.43;;;14.70;45.90;;;;;;4955660;28;21002;-76
2022/03/10 17:48:17;;;;;;;16.90;11.80;;;14.60;45.80;;;;;;4955776;28;20536;-76
2022/03/10 17:50:44;;;;;;;13.60;9.83;;;14.50;47.20;;;;;;4955806;28;20535;-75